createdAt,value
2019-04-06T00:00:39.126Z,31.37
2019-04-06T00:01:50.011Z,31.87
2019-04-06T00:02:54.629Z,32.03
2019-04-06T00:03:59.314Z,31.53
2019-04-06T00:05:03.963Z,31.83
2019-04-06T00:06:08.825Z,31.60
2019-04-06T00:07:16.444Z,29.63
2019-04-06T00:08:21.094Z,31.27
2019-04-06T00:09:25.790Z,31.80
2019-04-06T00:10:30.578Z,31.73
2019-04-06T00:11:35.245Z,31.27
2019-04-06T00:12:39.932Z,30.23
2019-04-06T00:13:44.585Z,29.77
2019-04-06T00:14:49.239Z,31.93
2019-04-06T00:15:54.012Z,32.37
2019-04-06T00:16:58.607Z,30.30
2019-04-06T00:18:03.263Z,32.00
2019-04-06T00:19:08.056Z,31.43
2019-04-06T00:20:12.890Z,30.90
2019-04-06T00:21:17.547Z,29.57
2019-04-06T00:22:22.290Z,29.73
2019-04-06T00:23:27.034Z,30.67
2019-04-06T00:24:31.719Z,30.50
2019-04-06T00:25:44.452Z,29.33
2019-04-06T00:26:42.984Z,30.97
2019-04-06T00:27:47.547Z,29.27
2019-04-06T00:28:52.204Z,31.23
2019-04-06T00:29:56.793Z,29.13
2019-04-06T00:31:09.033Z,30.67
2019-04-06T00:32:19.474Z,29.80
2019-04-06T00:33:24.227Z,30.97
2019-04-06T00:34:28.834Z,29.33
2019-04-06T00:35:33.470Z,29.90
2019-04-06T00:36:38.210Z,29.63
2019-04-06T00:37:42.829Z,29.30
2019-04-06T00:38:47.651Z,29.67
2019-04-06T00:39:52.479Z,31.33
2019-04-06T00:40:57.183Z,29.33
2019-04-06T00:42:02.028Z,29.07
2019-04-06T00:43:06.886Z,29.93
2019-04-06T00:44:11.665Z,29.87
2019-04-06T00:45:16.645Z,29.57
2019-04-06T00:46:21.417Z,30.30
2019-04-06T00:47:26.074Z,28.73
2019-04-06T00:48:30.768Z,30.47
2019-04-06T00:49:35.421Z,30.40
2019-04-06T00:50:40.083Z,29.93
2019-04-06T00:51:44.836Z,29.10
2019-04-06T00:52:49.530Z,29.03
2019-04-06T00:53:54.161Z,30.40
2019-04-06T00:54:58.839Z,29.77
2019-04-06T00:56:03.508Z,31.57
2019-04-06T00:57:08.288Z,28.67
2019-04-06T00:58:13.017Z,31.87
2019-04-06T00:59:19.053Z,30.30
2019-04-06T01:00:23.833Z,27.80
2019-04-06T01:01:28.463Z,29.90
2019-04-06T01:02:33.071Z,29.63
2019-04-06T01:03:37.719Z,30.20
2019-04-06T01:04:42.339Z,30.17
2019-04-06T01:05:47.084Z,32.17
2019-04-06T01:06:51.082Z,29.93
2019-04-06T01:07:55.790Z,30.30
2019-04-06T01:09:00.451Z,32.57
2019-04-06T01:10:05.219Z,30.30
2019-04-06T01:11:09.956Z,31.50
2019-04-06T01:12:14.616Z,30.83
2019-04-06T01:13:19.353Z,31.03
2019-04-06T01:14:23.981Z,29.80
2019-04-06T01:15:28.666Z,30.53
2019-04-06T01:16:33.260Z,31.50
2019-04-06T01:17:37.911Z,31.10
2019-04-06T01:18:42.605Z,32.13
2019-04-06T01:19:47.416Z,32.20
2019-04-06T01:20:52.276Z,31.97
2019-04-06T01:21:56.878Z,30.50
2019-04-06T01:23:01.544Z,32.33
2019-04-06T01:24:06.218Z,32.43
2019-04-06T01:25:10.951Z,30.17
2019-04-06T01:26:15.682Z,32.53
2019-04-06T01:27:20.408Z,30.83
2019-04-06T01:28:25.021Z,30.17
2019-04-06T01:29:29.733Z,31.93
2019-04-06T01:30:34.363Z,31.13
2019-04-06T01:31:39.064Z,30.07
2019-04-06T01:32:43.771Z,30.57
2019-04-06T01:33:48.582Z,30.00
2019-04-06T01:34:53.395Z,29.73
2019-04-06T01:35:58.073Z,30.63
2019-04-06T01:37:02.752Z,30.37
2019-04-06T01:38:07.376Z,30.80
2019-04-06T01:39:12.121Z,31.13
2019-04-06T01:40:16.844Z,32.10
2019-04-06T01:41:21.486Z,31.60
2019-04-06T01:42:26.214Z,31.87
2019-04-06T01:43:30.826Z,31.93
2019-04-06T01:44:35.691Z,32.03
2019-04-06T01:45:40.515Z,31.07
2019-04-06T01:46:45.100Z,33.07
2019-04-06T01:47:49.845Z,33.17
2019-04-06T01:48:54.521Z,30.93
2019-04-06T01:49:59.189Z,32.73
2019-04-06T01:51:03.913Z,33.63
2019-04-06T01:52:08.552Z,31.77
2019-04-06T01:53:13.258Z,31.57
2019-04-06T01:54:17.916Z,32.90
2019-04-06T01:55:22.540Z,31.50
2019-04-06T01:56:27.259Z,33.73
2019-04-06T01:57:31.892Z,30.97
2019-04-06T01:58:36.646Z,33.20
2019-04-06T01:59:41.362Z,32.07
2019-04-06T02:00:59.680Z,33.50
2019-04-06T02:02:18.703Z,32.33
2019-04-06T02:03:23.301Z,32.90
2019-04-06T02:04:27.986Z,32.87
2019-04-06T02:05:32.621Z,33.17
2019-04-06T02:06:37.319Z,32.80
2019-04-06T02:07:42.199Z,33.43
2019-04-06T02:08:46.836Z,32.13
2019-04-06T02:09:51.661Z,31.93
2019-04-06T02:10:56.385Z,31.27
2019-04-06T02:12:01.027Z,32.50
2019-04-06T02:13:05.769Z,33.37
2019-04-06T02:14:10.480Z,32.00
2019-04-06T02:15:15.472Z,31.20
2019-04-06T02:16:20.273Z,31.87
2019-04-06T02:17:24.854Z,32.53
2019-04-06T02:18:29.536Z,35.07
2019-04-06T02:19:34.260Z,30.77
2019-04-06T02:20:38.928Z,32.93
2019-04-06T02:21:43.580Z,34.53
2019-04-06T02:22:48.366Z,34.07
2019-04-06T02:23:52.979Z,33.43
2019-04-06T02:24:57.527Z,33.50
2019-04-06T02:26:02.662Z,32.93
2019-04-06T02:27:07.298Z,34.37
2019-04-06T02:28:12.073Z,32.07
2019-04-06T02:29:16.824Z,34.50
2019-04-06T02:30:31.314Z,32.23
2019-04-06T02:32:04.080Z,34.33
2019-04-06T02:33:27.651Z,31.70
2019-04-06T02:35:09.311Z,31.87
2019-04-06T02:36:38.939Z,32.20
2019-04-06T02:37:49.966Z,32.17
2019-04-06T02:39:12.244Z,32.10
2019-04-06T02:40:34.258Z,33.37
2019-04-06T02:41:45.573Z,32.90
2019-04-06T02:43:00.349Z,32.87
2019-04-06T02:44:04.915Z,34.07
2019-04-06T02:45:09.508Z,32.53
2019-04-06T02:46:13.876Z,33.47
2019-04-06T02:47:18.572Z,32.93
2019-04-06T02:48:23.009Z,36.57
2019-04-06T02:49:27.472Z,35.20
2019-04-06T02:50:32.035Z,33.67
2019-04-06T02:51:36.433Z,34.57
2019-04-06T02:52:40.880Z,33.80
2019-04-06T02:53:45.497Z,34.60
2019-04-06T02:54:50.230Z,35.97
2019-04-06T02:55:55.060Z,35.33
2019-04-06T02:56:59.946Z,34.33
2019-04-06T02:58:04.940Z,34.90
2019-04-06T02:59:10.043Z,33.20
2019-04-06T03:00:15.021Z,36.13
2019-04-06T03:01:19.912Z,34.83
2019-04-06T03:02:24.835Z,36.93
2019-04-06T03:03:29.766Z,34.43
2019-04-06T03:04:34.554Z,35.80
2019-04-06T03:05:39.519Z,35.53
2019-04-06T03:06:44.387Z,35.43
2019-04-06T03:07:49.160Z,32.60
2019-04-06T03:08:54.057Z,33.47
2019-04-06T03:09:58.716Z,33.50
2019-04-06T03:11:03.516Z,34.10
2019-04-06T03:12:08.551Z,34.70
2019-04-06T03:13:13.463Z,35.17
2019-04-06T03:14:18.556Z,34.87
2019-04-06T03:15:23.411Z,34.57
2019-04-06T03:16:28.096Z,35.97
2019-04-06T03:17:32.755Z,35.30
2019-04-06T03:18:37.803Z,34.67
2019-04-06T03:19:42.698Z,35.73
2019-04-06T03:20:47.766Z,35.73
2019-04-06T03:21:52.654Z,37.30
2019-04-06T03:22:57.517Z,33.87
2019-04-06T03:24:02.268Z,34.17
2019-04-06T03:25:07.156Z,34.27
2019-04-06T03:26:11.878Z,34.77
2019-04-06T03:27:16.854Z,34.67
2019-04-06T03:28:21.728Z,34.43
2019-04-06T03:29:26.597Z,35.07
2019-04-06T03:30:31.448Z,34.13
2019-04-06T03:31:36.059Z,35.07
2019-04-06T03:32:40.837Z,34.67
2019-04-06T03:33:48.639Z,37.03
2019-04-06T03:34:53.686Z,36.17
2019-04-06T03:35:58.582Z,34.73
2019-04-06T03:37:03.471Z,35.50
2019-04-06T03:38:10.983Z,35.40
2019-04-06T03:39:15.987Z,35.53
2019-04-06T03:40:20.680Z,36.13
2019-04-06T03:41:25.491Z,36.07
2019-04-06T03:42:30.296Z,36.40
2019-04-06T03:43:34.997Z,35.43
2019-04-06T03:44:39.759Z,35.47
2019-04-06T03:45:44.768Z,35.87
2019-04-06T03:46:49.463Z,35.00
2019-04-06T03:47:54.285Z,36.40
2019-04-06T03:48:59.051Z,37.27
2019-04-06T03:50:04.018Z,36.73
2019-04-06T03:51:08.730Z,37.50
2019-04-06T03:52:13.484Z,36.27
2019-04-06T03:53:18.346Z,35.43
2019-04-06T03:54:23.246Z,36.80
2019-04-06T03:55:28.097Z,37.63
2019-04-06T03:56:32.922Z,34.83
2019-04-06T03:57:37.676Z,36.83
2019-04-06T03:58:42.508Z,38.37
2019-04-06T03:59:47.680Z,35.80
2019-04-06T04:00:52.714Z,36.80
2019-04-06T04:01:57.530Z,37.00
2019-04-06T04:03:02.699Z,38.43
2019-04-06T04:04:07.946Z,38.57
2019-04-06T04:05:12.955Z,37.37
2019-04-06T04:06:17.680Z,36.20
2019-04-06T04:07:22.675Z,35.87
2019-04-06T04:08:27.719Z,35.03
2019-04-06T04:09:35.442Z,36.10
2019-04-06T04:10:40.439Z,36.97
2019-04-06T04:11:45.530Z,35.27
2019-04-06T04:12:50.455Z,38.23
2019-04-06T04:13:55.212Z,36.93
2019-04-06T04:15:00.307Z,38.37
2019-04-06T04:16:05.255Z,37.43
2019-04-06T04:17:10.086Z,37.17
2019-04-06T04:18:15.191Z,35.80
2019-04-06T04:19:19.978Z,40.33
2019-04-06T04:20:24.634Z,37.40
2019-04-06T04:21:29.570Z,37.23
2019-04-06T04:22:35.016Z,40.63
2019-04-06T04:23:40.022Z,37.37
2019-04-06T04:24:45.396Z,38.83
2019-04-06T04:25:50.612Z,36.97
2019-04-06T04:26:55.331Z,35.07
2019-04-06T04:28:00.439Z,36.50
2019-04-06T04:29:05.795Z,38.70
2019-04-06T04:30:11.051Z,38.00
2019-04-06T04:31:15.758Z,40.73
2019-04-06T04:32:20.593Z,36.07
2019-04-06T04:33:25.392Z,39.57
2019-04-06T04:34:30.408Z,37.10
2019-04-06T04:35:35.124Z,37.97
2019-04-06T04:36:39.982Z,37.37
2019-04-06T04:37:44.956Z,36.33
2019-04-06T04:38:49.721Z,37.77
2019-04-06T04:39:54.417Z,37.60
2019-04-06T04:40:59.285Z,36.73
2019-04-06T04:42:04.070Z,36.07
2019-04-06T04:43:08.839Z,37.00
2019-04-06T04:44:14.158Z,37.77
2019-04-06T04:45:19.188Z,38.73
2019-04-06T04:46:24.166Z,36.10
2019-04-06T04:47:29.086Z,37.97
2019-04-06T04:48:33.820Z,38.73
2019-04-06T04:49:38.449Z,37.13
2019-04-06T04:50:43.372Z,38.67
2019-04-06T04:51:48.730Z,38.50
2019-04-06T04:52:53.506Z,39.33
2019-04-06T04:53:57.888Z,38.80
2019-04-06T04:55:02.633Z,37.77
2019-04-06T04:56:07.597Z,40.30
2019-04-06T04:57:12.728Z,39.77
2019-04-06T04:58:17.395Z,40.17
2019-04-06T04:59:22.359Z,37.00
2019-04-06T05:00:27.177Z,38.00
2019-04-06T05:01:31.997Z,40.10
2019-04-06T05:02:36.830Z,38.27
2019-04-06T05:03:41.810Z,40.30
2019-04-06T05:04:46.524Z,38.63
2019-04-06T05:05:51.786Z,39.20
2019-04-06T05:06:56.644Z,41.97
2019-04-06T05:08:01.440Z,40.73
2019-04-06T05:09:07.782Z,40.47
2019-04-06T05:10:13.224Z,38.40
2019-04-06T05:11:17.889Z,40.10
2019-04-06T05:12:22.732Z,39.83
2019-04-06T05:13:28.017Z,38.77
2019-04-06T05:14:57.939Z,41.40
2019-04-06T05:16:11.803Z,38.47
2019-04-06T05:17:16.486Z,39.40
2019-04-06T05:18:21.261Z,38.80
2019-04-06T05:19:26.164Z,37.80
2019-04-06T05:20:30.901Z,38.60
2019-04-06T05:21:35.814Z,39.87
2019-04-06T05:22:40.620Z,39.47
2019-04-06T05:23:45.470Z,40.27
2019-04-06T05:24:50.445Z,39.57
2019-04-06T05:25:55.145Z,40.00
2019-04-06T05:27:00.026Z,38.83
2019-04-06T05:28:04.832Z,39.00
2019-04-06T05:29:09.684Z,40.63
2019-04-06T05:30:14.783Z,40.77
2019-04-06T05:31:19.746Z,39.70
2019-04-06T05:32:24.517Z,41.07
2019-04-06T05:33:29.525Z,40.53
2019-04-06T05:34:34.262Z,40.77
2019-04-06T05:35:39.094Z,40.03
2019-04-06T05:36:43.881Z,36.73
2019-04-06T05:37:49.208Z,37.97
2019-04-06T05:38:54.128Z,39.77
2019-04-06T05:39:58.974Z,40.37
2019-04-06T05:41:03.899Z,40.20
2019-04-06T05:42:09.077Z,39.23
2019-04-06T05:43:14.150Z,39.23
2019-04-06T05:44:18.969Z,39.73
2019-04-06T05:45:23.796Z,38.17
2019-04-06T05:46:28.794Z,38.83
2019-04-06T05:47:33.654Z,38.60
2019-04-06T05:48:38.680Z,38.40
2019-04-06T05:49:43.328Z,40.53
2019-04-06T05:50:48.314Z,38.27
2019-04-06T05:51:53.011Z,38.83
2019-04-06T05:52:57.892Z,38.33
2019-04-06T05:54:02.710Z,37.17
2019-04-06T05:55:07.777Z,39.67
2019-04-06T05:56:12.822Z,37.37
2019-04-06T05:57:17.513Z,40.77
2019-04-06T05:58:22.339Z,37.97
2019-04-06T05:59:27.429Z,37.43
2019-04-06T06:00:32.310Z,38.87
2019-04-06T06:01:40.322Z,39.27
2019-04-06T06:02:43.643Z,41.30
2019-04-06T06:03:48.397Z,41.40
2019-04-06T06:04:53.191Z,38.27
2019-04-06T06:05:57.923Z,39.07
2019-04-06T06:07:02.734Z,38.40
2019-04-06T06:08:08.270Z,38.77
2019-04-06T06:09:13.392Z,40.33
2019-04-06T06:10:18.152Z,37.70
2019-04-06T06:11:23.200Z,37.27
2019-04-06T06:12:27.940Z,39.50
2019-04-06T06:13:33.351Z,38.17
2019-04-06T06:14:38.099Z,38.60
2019-04-06T06:15:43.051Z,38.97
2019-04-06T06:16:47.877Z,40.07
2019-04-06T06:17:54.641Z,37.93
2019-04-06T06:18:59.326Z,38.83
2019-04-06T06:20:04.258Z,37.00
2019-04-06T06:21:09.275Z,39.30
2019-04-06T06:22:14.724Z,41.93
2019-04-06T06:23:19.406Z,38.40
2019-04-06T06:24:24.322Z,38.47
2019-04-06T06:25:29.411Z,38.57
2019-04-06T06:26:34.212Z,38.47
2019-04-06T06:27:39.314Z,37.40
2019-04-06T06:28:44.274Z,36.80
2019-04-06T06:29:49.028Z,37.03
2019-04-06T06:30:54.167Z,36.50
2019-04-06T06:31:59.403Z,36.87
2019-04-06T06:33:04.216Z,36.93
2019-04-06T06:34:09.554Z,38.67
2019-04-06T06:35:14.738Z,37.00
2019-04-06T06:36:19.434Z,36.77
2019-04-06T06:37:24.269Z,38.53
2019-04-06T06:38:29.063Z,39.60
2019-04-06T06:39:33.803Z,39.47
2019-04-06T06:40:38.784Z,38.30
2019-04-06T06:41:43.618Z,37.27
2019-04-06T06:42:48.438Z,38.13
2019-04-06T06:43:53.698Z,38.07
2019-04-06T06:44:58.514Z,38.80
2019-04-06T06:46:03.502Z,38.37
2019-04-06T06:47:08.371Z,39.77
2019-04-06T06:48:13.371Z,38.27
2019-04-06T06:49:18.315Z,39.23
2019-04-06T06:50:23.636Z,37.33
2019-04-06T06:51:28.454Z,37.17
2019-04-06T06:52:33.371Z,34.83
2019-04-06T06:53:38.710Z,39.80
2019-04-06T06:54:43.542Z,37.27
2019-04-06T06:55:48.331Z,38.17
2019-04-06T06:56:53.202Z,39.63
2019-04-06T06:57:58.263Z,36.35
2019-04-06T06:59:03.573Z,37.30
2019-04-06T07:00:09.086Z,37.63
2019-04-06T07:01:14.343Z,38.97
2019-04-06T07:02:19.516Z,38.00
2019-04-06T07:03:24.322Z,37.50
2019-04-06T07:04:29.405Z,38.73
2019-04-06T07:05:34.262Z,36.13
2019-04-06T07:06:39.317Z,38.23
2019-04-06T07:07:44.066Z,38.63
2019-04-06T07:08:49.097Z,37.57
2019-04-06T07:10:04.463Z,38.20
2019-04-06T07:11:00.880Z,36.85
2019-04-06T07:12:05.982Z,37.60
2019-04-06T07:13:10.740Z,37.80
2019-04-06T07:14:18.882Z,38.43
2019-04-06T07:15:23.695Z,39.00
2019-04-06T07:16:28.909Z,36.38
2019-04-06T07:17:33.941Z,36.23
2019-04-06T07:18:38.856Z,37.97
2019-04-06T07:19:43.737Z,36.88
2019-04-06T07:20:48.523Z,36.50
2019-04-06T07:21:55.260Z,38.38
2019-04-06T07:23:00.351Z,37.30
2019-04-06T07:24:05.372Z,39.00
2019-04-06T07:25:10.687Z,35.90
2019-04-06T07:26:15.842Z,37.50
2019-04-06T07:27:20.762Z,36.33
2019-04-06T07:28:37.159Z,37.97
2019-04-06T07:29:32.261Z,39.67
2019-04-06T07:30:37.055Z,37.03
2019-04-06T07:31:41.815Z,38.13
2019-04-06T07:32:46.573Z,38.83
2019-04-06T07:33:54.150Z,36.50
2019-04-06T07:34:59.301Z,39.00
2019-04-06T07:36:04.216Z,37.57
2019-04-06T07:37:09.038Z,38.30
2019-04-06T07:38:14.565Z,38.87
2019-04-06T07:39:19.384Z,37.08
2019-04-06T07:40:24.259Z,37.38
2019-04-06T07:41:29.102Z,37.20
2019-04-06T07:42:34.105Z,38.23
2019-04-06T07:43:39.109Z,39.00
2019-04-06T07:44:43.859Z,39.23
2019-04-06T07:45:49.110Z,36.85
2019-04-06T07:46:54.109Z,36.25
2019-04-06T07:47:59.095Z,37.10
2019-04-06T07:49:09.275Z,38.78
2019-04-06T07:50:11.432Z,38.50
2019-04-06T07:51:16.427Z,37.83
2019-04-06T07:52:21.962Z,38.00
2019-04-06T07:53:26.765Z,38.17
2019-04-06T07:54:31.890Z,37.60
2019-04-06T07:55:37.477Z,36.75
2019-04-06T07:56:42.379Z,37.17
2019-04-06T07:57:47.250Z,38.75
2019-04-06T07:58:52.550Z,41.05
2019-04-06T07:59:57.415Z,39.40
2019-04-06T08:01:02.544Z,37.15
2019-04-06T08:02:07.380Z,38.17
2019-04-06T08:03:12.357Z,36.50
2019-04-06T08:04:17.149Z,38.23
2019-04-06T08:05:22.386Z,35.53
2019-04-06T08:06:27.232Z,38.42
2019-04-06T08:07:32.047Z,37.03
2019-04-06T08:08:37.235Z,35.63
2019-04-06T08:09:42.178Z,37.80
2019-04-06T08:10:47.118Z,38.33
2019-04-06T08:11:52.367Z,38.85
2019-04-06T08:12:57.292Z,36.13
2019-04-06T08:14:02.259Z,36.68
2019-04-06T08:15:07.963Z,37.95
2019-04-06T08:16:13.167Z,38.73
2019-04-06T08:17:17.988Z,37.90
2019-04-06T08:18:22.873Z,36.10
2019-04-06T08:19:27.805Z,38.02
2019-04-06T08:20:32.705Z,36.88
2019-04-06T08:21:37.575Z,36.77
2019-04-06T08:22:42.494Z,35.08
2019-04-06T08:23:47.361Z,35.90
2019-04-06T08:24:52.577Z,36.05
2019-04-06T08:25:57.481Z,35.80
2019-04-06T08:27:02.442Z,36.65
2019-04-06T08:28:08.214Z,38.17
2019-04-06T08:29:13.612Z,36.90
2019-04-06T08:30:19.122Z,33.70
2019-04-06T08:31:24.116Z,32.55
2019-04-06T08:32:29.024Z,35.40
2019-04-06T08:33:33.968Z,36.13
2019-04-06T08:34:38.716Z,33.28
2019-04-06T08:35:43.646Z,37.70
2019-04-06T08:36:48.426Z,33.90
2019-04-06T08:37:53.939Z,33.23
2019-04-06T08:38:59.630Z,33.60
2019-04-06T08:40:05.303Z,33.45
2019-04-06T08:41:10.013Z,35.03
2019-04-06T08:42:15.631Z,32.13
2019-04-06T08:43:20.551Z,33.58
2019-04-06T08:44:25.268Z,33.55
2019-04-06T08:45:29.950Z,32.78
2019-04-06T08:46:34.874Z,32.73
2019-04-06T08:47:39.558Z,33.20
2019-04-06T08:48:44.411Z,34.53
2019-04-06T08:49:49.192Z,33.25
2019-04-06T08:50:53.956Z,32.93
2019-04-06T08:51:59.026Z,32.90
2019-04-06T08:53:03.896Z,32.28
2019-04-06T08:54:08.601Z,33.60
2019-04-06T08:55:13.709Z,34.23
2019-04-06T08:56:18.862Z,33.28
2019-04-06T08:57:23.687Z,32.78
2019-04-06T08:58:28.541Z,32.67
2019-04-06T08:59:33.293Z,33.48
2019-04-06T09:00:38.065Z,33.05
2019-04-06T09:01:42.829Z,31.10
2019-04-06T09:02:47.700Z,32.48
2019-04-06T09:03:52.503Z,32.50
2019-04-06T09:04:57.255Z,32.58
2019-04-06T09:06:02.149Z,30.60
2019-04-06T09:07:06.881Z,31.65
2019-04-06T09:08:11.857Z,30.62
2019-04-06T09:09:16.576Z,32.25
2019-04-06T09:10:21.420Z,32.70
2019-04-06T09:11:26.125Z,32.73
2019-04-06T09:12:30.857Z,32.30
2019-04-06T09:13:35.815Z,31.33
2019-04-06T09:14:40.613Z,32.60
2019-04-06T09:15:45.247Z,32.17
2019-04-06T09:16:50.066Z,31.73
2019-04-06T09:17:55.207Z,32.75
2019-04-06T09:19:00.122Z,32.42
2019-04-06T09:20:05.790Z,31.82
2019-04-06T09:21:10.576Z,31.70
2019-04-06T09:22:16.104Z,32.30
2019-04-06T09:23:20.924Z,31.35
2019-04-06T09:24:25.710Z,32.15
2019-04-06T09:25:30.472Z,32.35
2019-04-06T09:26:35.225Z,31.68
2019-04-06T09:27:39.326Z,32.90
2019-04-06T09:28:44.092Z,32.10
2019-04-06T09:29:49.058Z,31.40
2019-04-06T09:30:54.188Z,32.08
2019-04-06T09:31:58.988Z,31.60
2019-04-06T09:33:03.784Z,31.15
2019-04-06T09:34:08.626Z,31.93
2019-04-06T09:35:13.720Z,31.02
2019-04-06T09:36:18.883Z,31.90
2019-04-06T09:37:23.631Z,31.07
2019-04-06T09:38:28.607Z,30.60
2019-04-06T09:39:33.511Z,32.33
2019-04-06T09:40:40.751Z,32.40
2019-04-06T09:41:45.423Z,30.50
2019-04-06T09:42:50.213Z,31.02
2019-04-06T09:43:54.996Z,32.48
2019-04-06T09:45:18.606Z,33.02
2019-04-06T09:46:51.339Z,29.57
2019-04-06T09:48:15.498Z,29.72
2019-04-06T09:49:38.097Z,32.20
2019-04-06T09:51:00.631Z,30.15
2019-04-06T09:52:24.453Z,30.77
2019-04-06T09:53:46.860Z,32.65
2019-04-06T09:55:02.123Z,30.12
2019-04-06T09:56:17.663Z,30.45
2019-04-06T09:57:47.312Z,31.25
2019-04-06T09:59:01.936Z,32.58
2019-04-06T10:00:33.007Z,32.38
2019-04-06T10:02:02.571Z,31.35
2019-04-06T10:03:24.606Z,30.65
2019-04-06T10:04:48.736Z,29.65
2019-04-06T10:06:18.873Z,29.67
2019-04-06T10:07:39.932Z,31.40
2019-04-06T10:09:03.531Z,29.60
2019-04-06T10:10:27.295Z,28.50
2019-04-06T10:11:57.182Z,30.32
2019-04-06T10:13:23.891Z,32.23
2019-04-06T10:14:38.736Z,31.37
2019-04-06T10:16:05.331Z,30.62
2019-04-06T10:17:38.222Z,30.57
2019-04-06T10:19:02.110Z,28.38
2019-04-06T10:20:24.535Z,31.02
2019-04-06T10:21:57.052Z,31.37
2019-04-06T10:23:23.589Z,30.75
2019-04-06T10:24:49.852Z,29.70
2019-04-06T10:26:16.261Z,29.80
2019-04-06T10:27:31.046Z,29.87
2019-04-06T10:29:00.883Z,31.27
2019-04-06T10:30:24.762Z,30.55
2019-04-06T10:31:48.472Z,32.00
2019-04-06T10:33:01.592Z,31.40
2019-04-06T10:34:40.573Z,31.17
2019-04-06T10:36:13.513Z,30.62
2019-04-06T10:37:42.971Z,29.75
2019-04-06T10:39:09.540Z,31.20
2019-04-06T10:40:36.168Z,31.85
2019-04-06T10:42:09.143Z,31.10
2019-04-06T10:43:34.074Z,29.00
2019-04-06T10:44:56.189Z,29.12
2019-04-06T10:46:28.919Z,30.57
2019-04-06T10:47:50.906Z,29.95
2019-04-06T10:49:23.910Z,30.70
2019-04-06T10:50:45.848Z,31.57
2019-04-06T10:52:07.520Z,30.25
2019-04-06T10:53:29.703Z,30.43
2019-04-06T10:54:52.343Z,30.08
2019-04-06T10:56:03.902Z,31.25
2019-04-06T10:57:27.753Z,30.37
2019-04-06T10:59:03.783Z,29.05
2019-04-06T11:00:33.723Z,29.92
2019-04-06T11:01:57.007Z,29.37
2019-04-06T11:03:14.928Z,30.72
2019-04-06T11:04:41.687Z,29.80
2019-04-06T11:06:00.382Z,30.62
2019-04-06T11:07:13.443Z,32.05
2019-04-06T11:08:35.444Z,29.75
2019-04-06T11:10:11.184Z,27.87
2019-04-06T11:11:49.929Z,30.35
2019-04-06T11:13:22.679Z,29.42
2019-04-06T11:14:37.641Z,30.82
2019-04-06T11:16:04.263Z,31.10
2019-04-06T11:17:33.906Z,30.55
2019-04-06T11:18:56.194Z,29.90
2019-04-06T11:20:08.916Z,28.80
2019-04-06T11:21:27.625Z,29.72
2019-04-06T11:23:04.981Z,31.23
2019-04-06T11:24:31.551Z,28.95
2019-04-06T11:25:55.034Z,29.27
2019-04-06T11:27:21.225Z,29.45
2019-04-06T11:28:43.449Z,29.12
2019-04-06T11:30:15.887Z,28.25
2019-04-06T11:31:44.264Z,30.00
2019-04-06T11:33:06.569Z,30.08
2019-04-06T11:34:42.254Z,29.67
2019-04-06T11:36:08.683Z,31.02
2019-04-06T11:37:32.404Z,28.45
2019-04-06T11:38:54.269Z,31.42
2019-04-06T11:40:13.699Z,32.08
2019-04-06T11:41:28.263Z,30.52
2019-04-06T11:43:00.906Z,30.80
2019-04-06T11:44:27.330Z,28.20
2019-04-06T11:45:51.031Z,28.62
2019-04-06T11:47:17.367Z,30.92
2019-04-06T11:48:53.145Z,31.97
2019-04-06T11:50:20.002Z,29.40
2019-04-06T11:51:50.711Z,28.90
2019-04-06T11:53:17.172Z,29.35
2019-04-06T11:54:50.079Z,28.77
2019-04-06T11:56:16.676Z,29.27
2019-04-06T11:57:34.319Z,30.48
2019-04-06T11:59:10.015Z,28.87
2019-04-06T12:00:27.162Z,28.65
2019-04-06T12:02:05.866Z,29.32
2019-04-06T12:03:19.194Z,31.25
2019-04-06T12:04:46.014Z,29.70
2019-04-06T12:06:12.495Z,29.25
2019-04-06T12:07:24.125Z,28.90
2019-04-06T12:08:37.322Z,29.50
2019-04-06T12:10:13.089Z,30.00
2019-04-06T12:11:39.778Z,30.82
2019-04-06T12:13:05.624Z,27.85
2019-04-06T12:14:24.182Z,29.15
2019-04-06T12:15:37.216Z,29.35
2019-04-06T12:16:50.677Z,30.43
2019-04-06T12:18:12.989Z,29.60
2019-04-06T12:19:32.950Z,30.68
2019-04-06T12:20:52.011Z,29.35
2019-04-06T12:22:18.703Z,29.72
2019-04-06T12:23:40.875Z,26.93
2019-04-06T12:25:11.216Z,28.50
2019-04-06T12:26:23.206Z,27.13
2019-04-06T12:27:46.895Z,28.95
2019-04-06T12:29:04.193Z,27.15
2019-04-06T12:30:37.415Z,29.52
2019-04-06T12:32:02.214Z,28.75
2019-04-06T12:33:22.008Z,28.40
2019-04-06T12:34:54.954Z,29.95
2019-04-06T12:36:30.759Z,29.23
2019-04-06T12:37:42.622Z,29.72
2019-04-06T12:38:55.577Z,29.95
2019-04-06T12:40:22.582Z,29.12
2019-04-06T12:41:55.229Z,28.25
2019-04-06T12:43:18.988Z,29.72
2019-04-06T12:44:45.624Z,28.27
2019-04-06T12:46:08.982Z,29.00
2019-04-06T12:47:32.855Z,27.48
2019-04-06T12:49:02.346Z,27.37
2019-04-06T12:50:16.174Z,28.45
2019-04-06T12:51:46.330Z,27.95
2019-04-06T12:53:05.486Z,28.87
2019-04-06T12:54:27.610Z,28.23
2019-04-06T12:55:49.720Z,28.27
2019-04-06T12:57:12.227Z,28.45
2019-04-06T12:58:44.648Z,28.45
2019-04-06T12:59:54.981Z,26.95
2019-04-06T13:01:16.657Z,27.55
2019-04-06T13:02:38.337Z,26.93
2019-04-06T13:04:00.656Z,27.90
2019-04-06T13:05:23.551Z,28.05
2019-04-06T13:06:56.349Z,28.05
2019-04-06T13:08:12.875Z,26.73
2019-04-06T13:09:42.518Z,30.80
2019-04-06T13:10:54.821Z,29.57
2019-04-06T13:12:24.583Z,28.45
2019-04-06T13:13:44.668Z,28.32
2019-04-06T13:15:05.732Z,28.67
2019-04-06T13:16:46.903Z,30.00
2019-04-06T13:18:22.998Z,29.87
2019-04-06T13:19:46.768Z,27.00
2019-04-06T13:21:09.131Z,28.70
2019-04-06T13:22:51.343Z,27.42
2019-04-06T13:24:07.079Z,29.77
2019-04-06T13:25:39.795Z,28.12
2019-04-06T13:27:00.590Z,28.02
2019-04-06T13:28:20.930Z,29.25
2019-04-06T13:29:43.308Z,29.63
2019-04-06T13:31:08.489Z,29.05
2019-04-06T13:32:41.450Z,27.02
2019-04-06T13:34:02.751Z,29.00
2019-04-06T13:35:35.782Z,28.73
2019-04-06T13:37:02.217Z,27.98
2019-04-06T13:38:37.907Z,28.90
2019-04-06T13:39:59.515Z,28.73
2019-04-06T13:41:23.230Z,29.00
2019-04-06T13:42:46.820Z,27.50
2019-04-06T13:44:01.932Z,28.75
2019-04-06T13:45:24.646Z,28.32
2019-04-06T13:46:39.908Z,29.30
2019-04-06T13:48:10.331Z,28.52
2019-04-06T13:49:52.200Z,27.82
2019-04-06T13:51:08.484Z,27.05
2019-04-06T13:52:19.890Z,28.62
2019-04-06T13:53:58.596Z,28.20
2019-04-06T13:55:37.340Z,27.62
2019-04-06T13:56:53.880Z,28.73
2019-04-06T13:58:32.520Z,29.35
2019-04-06T13:59:47.993Z,28.27
2019-04-06T14:00:59.702Z,28.70
2019-04-06T14:02:20.658Z,27.85
2019-04-06T14:03:46.053Z,29.05
2019-04-06T14:05:09.701Z,27.65
2019-04-06T14:06:33.648Z,28.35
2019-04-06T14:07:51.035Z,27.20
2019-04-06T14:09:10.551Z,29.65
2019-04-06T14:10:37.098Z,27.50
2019-04-06T14:11:56.472Z,27.13
2019-04-06T14:13:38.739Z,27.50
2019-04-06T14:14:49.561Z,27.13
2019-04-06T14:16:14.358Z,26.52
2019-04-06T14:17:36.961Z,27.90
2019-04-06T14:18:59.437Z,27.22
2019-04-06T14:20:22.027Z,29.02
2019-04-06T14:21:45.669Z,27.60
2019-04-06T14:23:03.788Z,26.87
2019-04-06T14:24:46.151Z,27.58
2019-04-06T14:26:06.996Z,27.05
2019-04-06T14:27:45.887Z,27.05
2019-04-06T14:28:57.674Z,27.48
2019-04-06T14:30:16.744Z,27.32
2019-04-06T14:31:33.514Z,26.42
2019-04-06T14:32:52.253Z,26.40
2019-04-06T14:34:27.564Z,24.90
2019-04-06T14:35:49.251Z,26.12
2019-04-06T14:37:28.487Z,26.42
2019-04-06T14:38:52.205Z,25.08
2019-04-06T14:42:00.677Z,26.00
2019-04-06T14:43:36.526Z,24.75
2019-04-06T14:44:54.714Z,24.25
2019-04-06T14:46:20.226Z,23.55
2019-04-06T14:47:52.457Z,24.60
2019-04-06T14:49:28.529Z,23.52
2019-04-06T14:50:36.955Z,24.72
2019-04-06T14:51:58.947Z,22.70
2019-04-06T14:53:31.610Z,23.22
2019-04-06T14:54:43.913Z,24.10
2019-04-06T14:56:10.467Z,22.93
2019-04-06T14:57:23.618Z,23.35
2019-04-06T14:58:53.571Z,23.57
2019-04-06T15:00:26.686Z,22.77
2019-04-06T15:01:58.912Z,22.65
2019-04-06T15:03:19.684Z,23.20
2019-04-06T15:04:35.283Z,24.77
2019-04-06T15:05:56.164Z,23.22
2019-04-06T15:07:19.487Z,23.32
2019-04-06T15:08:43.653Z,22.50
2019-04-06T15:09:57.442Z,21.25
2019-04-06T15:11:29.604Z,22.25
2019-04-06T15:12:58.189Z,22.32
2019-04-06T15:14:33.805Z,23.40
2019-04-06T15:16:03.629Z,21.15
2019-04-06T15:17:18.004Z,22.17
2019-04-06T15:18:39.708Z,20.68
2019-04-06T15:20:01.978Z,20.25